Ressurser
NettlenkerNedenfor følger en lenkesamling med ulike ressurser som er nyttige både for nåværende og kommende piloter.
Antall som skal vises: 
Nr. Nettlenke Treff
1   Link   Airplane Flying Handbook
Bok i PDF versjon som gir en innføring i flyging. Utgitt av FAA.
3155
2   Link   VOR, NDB, HSI og RMI simulator
Side med utallige flash-baserte simulatorer.
3903
3   Link   Pilot's Handbook of Aeronautical Knowledge
FAA lærebok om fly-relaterte temaer.
2585
4   Link   AOPA Air Safety Foundation
Gratis flash-baserte pilot kurs fra AOPA.
2503
5   Link   Pilot Friend
Side med mange nyttige ressurser: vær, flytyper, motortyper, flyplanlegging, flymedisin m.m.
2827
6   Link   Bernoullis prinsipp
Side med animert og fyldig informasjon om Bernoullis prinsipp
2847
7   Link   Seaplane, Skiplane, and Float/Ski Equipped Helicopter Operations Handbook
FAA bok som omhandler ski og sjøflyging.
2496
 
METAR
2018/12/18 10:20 ENCN 181020Z 04008KT 9999 BKN021 00/M01 Q1022
TAF
2018/12/18 09:36 TAF TAF ENCN 180800Z 1809/1818 05005KT 9999 FEW012 BKN025 BECMG 1813/1815 4000 -SN VV008
LN-KFK
Operativ VFR-natt
VFR dag
08:19 - 16:29
Brannvakt
Inaktiv
Banner
Banner
Banner
Banner
Banner